sensor_id;sensor_type;location;lat;lon;timestamp;temperature;humidity
28761;DHT22;15917;50.014;8.352;2023-04-01T00:01:31;10.80;99.90
28761;DHT22;15917;50.014;8.352;2023-04-01T00:03:57;10.80;99.90
28761;DHT22;15917;50.014;8.352;2023-04-01T00:06:23;10.80;99.90
28761;DHT22;15917;50.014;8.352;2023-04-01T00:08:49;10.80;99.90
28761;DHT22;15917;50.014;8.352;2023-04-01T00:11:15;10.90;99.90
28761;DHT22;15917;50.014;8.352;2023-04-01T00:13:41;10.80;99.90
28761;DHT22;15917;50.014;8.352;2023-04-01T00:16:07;10.90;99.90
28761;DHT22;15917;50.014;8.352;2023-04-01T00:18:33;10.90;99.90
28761;DHT22;15917;50.014;8.352;2023-04-01T00:20:59;10.90;99.90
28761;DHT22;15917;50.014;8.352;2023-04-01T00:23:25;10.90;99.90
28761;DHT22;15917;50.014;8.352;2023-04-01T00:25:51;10.90;99.90
28761;DHT22;15917;50.014;8.352;2023-04-01T00:28:18;10.90;99.90
28761;DHT22;15917;50.014;8.352;2023-04-01T00:30:45;10.90;99.90
28761;DHT22;15917;50.014;8.352;2023-04-01T00:33:12;10.90;99.90
28761;DHT22;15917;50.014;8.352;2023-04-01T00:35:38;10.90;99.90
28761;DHT22;15917;50.014;8.352;2023-04-01T00:38:04;10.90;99.90
28761;DHT22;15917;50.014;8.352;2023-04-01T00:40:37;10.90;99.90
28761;DHT22;15917;50.014;8.352;2023-04-01T00:43:09;10.90;99.90
28761;DHT22;15917;50.014;8.352;2023-04-01T00:45:37;10.90;99.90
28761;DHT22;15917;50.014;8.352;2023-04-01T00:48:09;10.90;99.90
28761;DHT22;15917;50.014;8.352;2023-04-01T00:50:36;10.90;99.90
28761;DHT22;15917;50.014;8.352;2023-04-01T00:53:05;10.80;99.90
28761;DHT22;15917;50.014;8.352;2023-04-01T00:55:34;10.80;99.90
28761;DHT22;15917;50.014;8.352;2023-04-01T00:58:03;10.80;99.90
28761;DHT22;15917;50.014;8.352;2023-04-01T01:00:29;10.80;99.90
28761;DHT22;15917;50.014;8.352;2023-04-01T01:02:54;10.80;99.90
28761;DHT22;15917;50.014;8.352;2023-04-01T01:05:36;10.80;99.90
28761;DHT22;15917;50.014;8.352;2023-04-01T01:10:39;10.80;99.90
28761;DHT22;15917;50.014;8.352;2023-04-01T01:24:41;10.80;99.90
28761;DHT22;15917;50.014;8.352;2023-04-01T01:27:19;10.80;99.90
28761;DHT22;15917;50.014;8.352;2023-04-01T01:32:44;10.70;99.90
28761;DHT22;15917;50.014;8.352;2023-04-01T01:38:00;10.70;99.90
28761;DHT22;15917;50.014;8.352;2023-04-01T01:40:29;10.70;99.90
28761;DHT22;15917;50.014;8.352;2023-04-01T01:43:02;10.70;99.90
28761;DHT22;15917;50.014;8.352;2023-04-01T01:45:30;10.70;99.90
28761;DHT22;15917;50.014;8.352;2023-04-01T01:47:59;10.80;99.90
28761;DHT22;15917;50.014;8.352;2023-04-01T01:50:26;10.80;99.90
28761;DHT22;15917;50.014;8.352;2023-04-01T01:53:10;10.80;99.90
28761;DHT22;15917;50.014;8.352;2023-04-01T01:55:42;10.80;99.90
28761;DHT22;15917;50.014;8.352;2023-04-01T02:01:01;10.80;99.90
28761;DHT22;15917;50.014;8.352;2023-04-01T02:03:30;10.80;99.90
28761;DHT22;15917;50.014;8.352;2023-04-01T02:05:59;10.80;99.90
28761;DHT22;15917;50.014;8.352;2023-04-01T02:08:34;10.80;99.90
28761;DHT22;15917;50.014;8.352;2023-04-01T02:11:04;10.70;99.90
28761;DHT22;15917;50.014;8.352;2023-04-01T02:13:58;10.70;99.90
28761;DHT22;15917;50.014;8.352;2023-04-01T02:16:33;10.70;99.90
28761;DHT22;15917;50.014;8.352;2023-04-01T02:19:01;10.70;99.90
28761;DHT22;15917;50.014;8.352;2023-04-01T02:21:29;10.70;99.90
28761;DHT22;15917;50.014;8.352;2023-04-01T02:23:57;10.70;99.90
28761;DHT22;15917;50.014;8.352;2023-04-01T02:26:24;10.70;99.90
28761;DHT22;15917;50.014;8.352;2023-04-01T02:28:54;10.70;99.90
28761;DHT22;15917;50.014;8.352;2023-04-01T02:31:21;10.60;99.90
28761;DHT22;15917;50.014;8.352;2023-04-01T02:33:48;10.60;99.90
28761;DHT22;15917;50.014;8.352;2023-04-01T02:36:16;10.60;99.90
28761;DHT22;15917;50.014;8.352;2023-04-01T02:38:44;10.60;99.90
28761;DHT22;15917;50.014;8.352;2023-04-01T02:41:10;10.60;99.90
28761;DHT22;15917;50.014;8.352;2023-04-01T02:43:35;10.60;99.90
28761;DHT22;15917;50.014;8.352;2023-04-01T02:46:01;10.60;99.90
28761;DHT22;15917;50.014;8.352;2023-04-01T02:48:27;10.60;99.90
28761;DHT22;15917;50.014;8.352;2023-04-01T02:50:53;10.50;99.90
28761;DHT22;15917;50.014;8.352;2023-04-01T02:53:18;10.60;99.90
28761;DHT22;15917;50.014;8.352;2023-04-01T02:55:44;10.50;99.90
28761;DHT22;15917;50.014;8.352;2023-04-01T02:58:11;10.50;99.90
28761;DHT22;15917;50.014;8.352;2023-04-01T03:00:37;10.50;99.90
28761;DHT22;15917;50.014;8.352;2023-04-01T03:03:03;10.50;99.90
28761;DHT22;15917;50.014;8.352;2023-04-01T03:05:29;10.50;99.90
28761;DHT22;15917;50.014;8.352;2023-04-01T03:07:55;10.50;99.90
28761;DHT22;15917;50.014;8.352;2023-04-01T03:10:22;10.50;99.90
28761;DHT22;15917;50.014;8.352;2023-04-01T03:12:48;10.50;99.90
28761;DHT22;15917;50.014;8.352;2023-04-01T03:15:14;10.50;99.90
28761;DHT22;15917;50.014;8.352;2023-04-01T03:17:41;10.50;99.90
28761;DHT22;15917;50.014;8.352;2023-04-01T03:20:08;10.50;99.90
28761;DHT22;15917;50.014;8.352;2023-04-01T03:22:35;10.50;99.90
28761;DHT22;15917;50.014;8.352;2023-04-01T03:25:01;10.50;99.90
28761;DHT22;15917;50.014;8.352;2023-04-01T03:27:29;10.50;99.90
28761;DHT22;15917;50.014;8.352;2023-04-01T03:29:55;10.50;99.90
28761;DHT22;15917;50.014;8.352;2023-04-01T03:32:20;10.50;99.90
28761;DHT22;15917;50.014;8.352;2023-04-01T03:34:46;10.50;99.90
28761;DHT22;15917;50.014;8.352;2023-04-01T03:37:12;10.50;99.90
28761;DHT22;15917;50.014;8.352;2023-04-01T03:39:37;10.50;99.90
28761;DHT22;15917;50.014;8.352;2023-04-01T03:42:03;10.60;99.90
28761;DHT22;15917;50.014;8.352;2023-04-01T03:44:31;10.50;99.90
28761;DHT22;15917;50.014;8.352;2023-04-01T03:46:57;10.50;99.90
28761;DHT22;15917;50.014;8.352;2023-04-01T03:49:23;10.50;99.90
28761;DHT22;15917;50.014;8.352;2023-04-01T03:51:48;10.50;99.90
28761;DHT22;15917;50.014;8.352;2023-04-01T03:54:14;10.50;99.90
28761;DHT22;15917;50.014;8.352;2023-04-01T03:56:42;10.50;99.90
28761;DHT22;15917;50.014;8.352;2023-04-01T03:59:08;10.60;99.90
28761;DHT22;15917;50.014;8.352;2023-04-01T04:01:34;10.50;99.90
28761;DHT22;15917;50.014;8.352;2023-04-01T04:04:00;10.50;99.90
28761;DHT22;15917;50.014;8.352;2023-04-01T04:06:26;10.50;99.90
28761;DHT22;15917;50.014;8.352;2023-04-01T04:08:52;10.50;99.90
28761;DHT22;15917;50.014;8.352;2023-04-01T04:11:20;10.60;99.90
28761;DHT22;15917;50.014;8.352;2023-04-01T04:13:46;10.50;99.90
28761;DHT22;15917;50.014;8.352;2023-04-01T04:16:16;10.50;99.90
28761;DHT22;15917;50.014;8.352;2023-04-01T04:18:45;10.50;99.90
28761;DHT22;15917;50.014;8.352;2023-04-01T04:21:13;10.50;99.90
28761;DHT22;15917;50.014;8.352;2023-04-01T04:23:40;10.50;99.90
28761;DHT22;15917;50.014;8.352;2023-04-01T04:26:09;10.50;99.90
28761;DHT22;15917;50.014;8.352;2023-04-01T04:28:36;10.60;99.90
28761;DHT22;15917;50.014;8.352;2023-04-01T04:31:02;10.60;99.90
28761;DHT22;15917;50.014;8.352;2023-04-01T04:33:30;10.50;99.90
28761;DHT22;15917;50.014;8.352;2023-04-01T04:35:57;10.50;99.90
28761;DHT22;15917;50.014;8.352;2023-04-01T04:38:24;10.50;99.90
28761;DHT22;15917;50.014;8.352;2023-04-01T04:40:50;10.50;99.90
28761;DHT22;15917;50.014;8.352;2023-04-01T04:43:16;10.50;99.90
28761;DHT22;15917;50.014;8.352;2023-04-01T04:45:42;10.50;99.90
28761;DHT22;15917;50.014;8.352;2023-04-01T04:48:10;10.50;99.90
28761;DHT22;15917;50.014;8.352;2023-04-01T04:50:40;10.50;99.90
28761;DHT22;15917;50.014;8.352;2023-04-01T04:53:06;10.50;99.90
28761;DHT22;15917;50.014;8.352;2023-04-01T04:55:32;10.50;99.90
28761;DHT22;15917;50.014;8.352;2023-04-01T04:58:19;10.40;99.90
28761;DHT22;15917;50.014;8.352;2023-04-01T05:00:46;10.40;99.90
28761;DHT22;15917;50.014;8.352;2023-04-01T05:03:19;10.40;99.90
28761;DHT22;15917;50.014;8.352;2023-04-01T05:05:52;10.40;99.90
28761;DHT22;15917;50.014;8.352;2023-04-01T05:08:18;10.40;99.90
28761;DHT22;15917;50.014;8.352;2023-04-01T05:10:44;10.40;99.90
28761;DHT22;15917;50.014;8.352;2023-04-01T05:13:11;10.30;99.90
28761;DHT22;15917;50.014;8.352;2023-04-01T05:15:37;10.30;99.90
28761;DHT22;15917;50.014;8.352;2023-04-01T05:18:03;10.30;99.90
28761;DHT22;15917;50.014;8.352;2023-04-01T05:20:28;10.30;99.90
28761;DHT22;15917;50.014;8.352;2023-04-01T05:22:58;10.30;99.90
28761;DHT22;15917;50.014;8.352;2023-04-01T05:25:25;10.30;99.90
28761;DHT22;15917;50.014;8.352;2023-04-01T05:27:51;10.40;99.90
28761;DHT22;15917;50.014;8.352;2023-04-01T05:30:16;10.30;99.90
28761;DHT22;15917;50.014;8.352;2023-04-01T05:33:00;10.40;99.90
28761;DHT22;15917;50.014;8.352;2023-04-01T05:35:26;10.30;99.90
28761;DHT22;15917;50.014;8.352;2023-04-01T05:37:52;10.40;99.90
28761;DHT22;15917;50.014;8.352;2023-04-01T05:40:18;10.40;99.90
28761;DHT22;15917;50.014;8.352;2023-04-01T05:42:43;10.40;99.90
28761;DHT22;15917;50.014;8.352;2023-04-01T05:45:10;10.40;99.90
28761;DHT22;15917;50.014;8.352;2023-04-01T05:48:05;10.40;99.90
28761;DHT22;15917;50.014;8.352;2023-04-01T05:50:36;10.40;99.90
28761;DHT22;15917;50.014;8.352;2023-04-01T05:53:03;10.40;99.90
28761;DHT22;15917;50.014;8.352;2023-04-01T05:55:28;10.40;99.90
28761;DHT22;15917;50.014;8.352;2023-04-01T05:57:54;10.40;99.90
28761;DHT22;15917;50.014;8.352;2023-04-01T06:00:20;10.40;99.90
28761;DHT22;15917;50.014;8.352;2023-04-01T06:02:46;10.40;99.90
28761;DHT22;15917;50.014;8.352;2023-04-01T06:05:24;10.40;99.90
28761;DHT22;15917;50.014;8.352;2023-04-01T06:08:08;10.50;99.90
28761;DHT22;15917;50.014;8.352;2023-04-01T06:10:57;10.40;99.90
28761;DHT22;15917;50.014;8.352;2023-04-01T06:16:26;10.40;99.90
28761;DHT22;15917;50.014;8.352;2023-04-01T06:30:52;10.40;99.90
28761;DHT22;15917;50.014;8.352;2023-04-01T06:33:55;10.40;99.90
28761;DHT22;15917;50.014;8.352;2023-04-01T06:36:37;10.40;99.90
28761;DHT22;15917;50.014;8.352;2023-04-01T06:41:55;10.50;99.90
28761;DHT22;15917;50.014;8.352;2023-04-01T06:44:43;10.50;99.90
28761;DHT22;15917;50.014;8.352;2023-04-01T06:54:14;10.50;99.90
28761;DHT22;15917;50.014;8.352;2023-04-01T06:57:10;10.40;99.90
28761;DHT22;15917;50.014;8.352;2023-04-01T06:59:42;10.40;99.90
28761;DHT22;15917;50.014;8.352;2023-04-01T07:02:22;10.50;99.90
28761;DHT22;15917;50.014;8.352;2023-04-01T07:04:51;10.50;99.90
28761;DHT22;15917;50.014;8.352;2023-04-01T07:07:39;10.50;99.90
28761;DHT22;15917;50.014;8.352;2023-04-01T07:16:25;10.50;99.90
28761;DHT22;15917;50.014;8.352;2023-04-01T07:22:04;10.60;99.90
28761;DHT22;15917;50.014;8.352;2023-04-01T07:24:51;10.60;99.90
28761;DHT22;15917;50.014;8.352;2023-04-01T07:27:18;10.60;99.90
28761;DHT22;15917;50.014;8.352;2023-04-01T07:29:44;10.60;99.90
28761;DHT22;15917;50.014;8.352;2023-04-01T07:35:29;10.70;99.90
28761;DHT22;15917;50.014;8.352;2023-04-01T07:40:40;10.80;99.90
28761;DHT22;15917;50.014;8.352;2023-04-01T07:46:09;11.30;99.90
28761;DHT22;15917;50.014;8.352;2023-04-01T07:51:47;11.30;99.90
28761;DHT22;15917;50.014;8.352;2023-04-01T07:54:42;11.20;99.90
28761;DHT22;15917;50.014;8.352;2023-04-01T07:57:29;11.20;99.90
28761;DHT22;15917;50.014;8.352;2023-04-01T08:00:19;11.20;99.90
28761;DHT22;15917;50.014;8.352;2023-04-01T08:03:17;11.20;99.90
28761;DHT22;15917;50.014;8.352;2023-04-01T08:06:05;11.10;99.90
28761;DHT22;15917;50.014;8.352;2023-04-01T08:09:02;11.00;99.90
28761;DHT22;15917;50.014;8.352;2023-04-01T08:12:11;11.00;99.90
28761;DHT22;15917;50.014;8.352;2023-04-01T08:15:09;11.10;99.90
28761;DHT22;15917;50.014;8.352;2023-04-01T08:20:59;11.00;99.90
28761;DHT22;15917;50.014;8.352;2023-04-01T08:23:27;10.90;99.90
28761;DHT22;15917;50.014;8.352;2023-04-01T08:28:51;10.90;99.90
28761;DHT22;15917;50.014;8.352;2023-04-01T08:33:55;10.90;99.90
28761;DHT22;15917;50.014;8.352;2023-04-01T08:36:41;11.00;99.90
28761;DHT22;15917;50.014;8.352;2023-04-01T08:39:24;11.10;99.90
28761;DHT22;15917;50.014;8.352;2023-04-01T08:42:04;11.20;99.90
28761;DHT22;15917;50.014;8.352;2023-04-01T08:53:35;10.90;99.90
28761;DHT22;15917;50.014;8.352;2023-04-01T08:56:18;11.00;99.90
28761;DHT22;15917;50.014;8.352;2023-04-01T09:19:32;11.20;99.90
28761;DHT22;15917;50.014;8.352;2023-04-01T09:27:29;11.10;99.90
28761;DHT22;15917;50.014;8.352;2023-04-01T09:30:36;11.00;99.90
28761;DHT22;15917;50.014;8.352;2023-04-01T09:35:46;11.10;99.90
28761;DHT22;15917;50.014;8.352;2023-04-01T09:41:29;11.20;99.90
28761;DHT22;15917;50.014;8.352;2023-04-01T09:44:19;11.20;99.90
28761;DHT22;15917;50.014;8.352;2023-04-01T09:50:16;11.30;99.90
28761;DHT22;15917;50.014;8.352;2023-04-01T10:09:45;11.70;99.90
28761;DHT22;15917;50.014;8.352;2023-04-01T10:12:36;11.70;99.90
28761;DHT22;15917;50.014;8.352;2023-04-01T10:18:18;11.60;99.90
28761;DHT22;15917;50.014;8.352;2023-04-01T10:21:05;11.70;99.90
28761;DHT22;15917;50.014;8.352;2023-04-01T10:29:58;11.70;99.90
28761;DHT22;15917;50.014;8.352;2023-04-01T10:35:24;11.60;99.90
28761;DHT22;15917;50.014;8.352;2023-04-01T10:41:27;11.60;99.90
28761;DHT22;15917;50.014;8.352;2023-04-01T10:48:01;11.80;99.90
28761;DHT22;15917;50.014;8.352;2023-04-01T10:53:33;11.80;99.90
28761;DHT22;15917;50.014;8.352;2023-04-01T11:25:11;12.50;99.90
28761;DHT22;15917;50.014;8.352;2023-04-01T11:42:01;12.10;99.90
28761;DHT22;15917;50.014;8.352;2023-04-01T11:45:11;12.20;99.90
28761;DHT22;15917;50.014;8.352;2023-04-01T11:47:48;12.30;99.90
28761;DHT22;15917;50.014;8.352;2023-04-01T11:53:10;12.30;99.90
28761;DHT22;15917;50.014;8.352;2023-04-01T12:03:54;12.30;99.90
28761;DHT22;15917;50.014;8.352;2023-04-01T12:06:34;12.30;99.90
28761;DHT22;15917;50.014;8.352;2023-04-01T12:12:11;12.10;99.90
28761;DHT22;15917;50.014;8.352;2023-04-01T12:18:10;12.00;99.90
28761;DHT22;15917;50.014;8.352;2023-04-01T12:20:50;12.00;99.90
28761;DHT22;15917;50.014;8.352;2023-04-01T12:23:34;12.00;99.90
28761;DHT22;15917;50.014;8.352;2023-04-01T12:29:07;12.10;99.90
28761;DHT22;15917;50.014;8.352;2023-04-01T12:31:52;12.10;99.90
28761;DHT22;15917;50.014;8.352;2023-04-01T12:35:15;12.20;99.90
28761;DHT22;15917;50.014;8.352;2023-04-01T12:40:20;12.50;99.90
28761;DHT22;15917;50.014;8.352;2023-04-01T12:45:57;12.60;99.90
28761;DHT22;15917;50.014;8.352;2023-04-01T12:51:46;12.50;99.90
28761;DHT22;15917;50.014;8.352;2023-04-01T12:54:49;12.40;99.90
28761;DHT22;15917;50.014;8.352;2023-04-01T13:11:20;12.10;99.90
28761;DHT22;15917;50.014;8.352;2023-04-01T13:16:27;12.10;99.90
28761;DHT22;15917;50.014;8.352;2023-04-01T13:18:59;12.00;99.90
28761;DHT22;15917;50.014;8.352;2023-04-01T13:21:51;12.00;99.90
28761;DHT22;15917;50.014;8.352;2023-04-01T13:27:37;11.90;99.90
28761;DHT22;15917;50.014;8.352;2023-04-01T13:30:18;11.90;99.90
28761;DHT22;15917;50.014;8.352;2023-04-01T13:35:30;12.20;99.90
28761;DHT22;15917;50.014;8.352;2023-04-01T13:41:05;12.10;99.90
28761;DHT22;15917;50.014;8.352;2023-04-01T13:43:51;12.00;99.90
28761;DHT22;15917;50.014;8.352;2023-04-01T13:49:29;12.10;99.90
28761;DHT22;15917;50.014;8.352;2023-04-01T13:52:15;12.00;99.90
28761;DHT22;15917;50.014;8.352;2023-04-01T13:55:24;12.10;99.90
28761;DHT22;15917;50.014;8.352;2023-04-01T13:58:30;12.20;99.90
28761;DHT22;15917;50.014;8.352;2023-04-01T14:01:06;12.30;99.90
28761;DHT22;15917;50.014;8.352;2023-04-01T14:09:45;12.30;99.90
28761;DHT22;15917;50.014;8.352;2023-04-01T14:24:06;12.30;99.90
28761;DHT22;15917;50.014;8.352;2023-04-01T14:26:55;12.30;99.90
28761;DHT22;15917;50.014;8.352;2023-04-01T14:29:56;12.30;99.90
28761;DHT22;15917;50.014;8.352;2023-04-01T14:35:19;12.30;99.90
28761;DHT22;15917;50.014;8.352;2023-04-01T14:38:17;12.30;99.90
28761;DHT22;15917;50.014;8.352;2023-04-01T14:46:47;12.10;99.90
28761;DHT22;15917;50.014;8.352;2023-04-01T14:51:47;12.10;99.90
28761;DHT22;15917;50.014;8.352;2023-04-01T14:54:22;12.20;99.90
28761;DHT22;15917;50.014;8.352;2023-04-01T14:59:30;12.20;99.90
28761;DHT22;15917;50.014;8.352;2023-04-01T15:07:56;12.20;99.90
28761;DHT22;15917;50.014;8.352;2023-04-01T15:19:05;12.40;99.90
28761;DHT22;15917;50.014;8.352;2023-04-01T15:24:16;13.10;99.90
28761;DHT22;15917;50.014;8.352;2023-04-01T15:35:55;12.90;99.90
28761;DHT22;15917;50.014;8.352;2023-04-01T15:38:36;12.70;99.90
28761;DHT22;15917;50.014;8.352;2023-04-01T15:43:50;12.60;99.90
28761;DHT22;15917;50.014;8.352;2023-04-01T15:46:26;12.50;99.90
28761;DHT22;15917;50.014;8.352;2023-04-01T15:49:19;12.40;99.90
28761;DHT22;15917;50.014;8.352;2023-04-01T15:52:17;12.50;99.90
28761;DHT22;15917;50.014;8.352;2023-04-01T16:00:28;12.30;99.90
28761;DHT22;15917;50.014;8.352;2023-04-01T16:06:14;12.30;99.90
28761;DHT22;15917;50.014;8.352;2023-04-01T16:14:39;12.00;99.90
28761;DHT22;15917;50.014;8.352;2023-04-01T16:22:38;12.00;99.90
28761;DHT22;15917;50.014;8.352;2023-04-01T16:25:31;12.30;99.90
28761;DHT22;15917;50.014;8.352;2023-04-01T16:30:44;12.70;99.90
28761;DHT22;15917;50.014;8.352;2023-04-01T16:41:33;12.10;99.90
28761;DHT22;15917;50.014;8.352;2023-04-01T16:44:24;12.10;99.90
28761;DHT22;15917;50.014;8.352;2023-04-01T16:46:59;12.00;99.90
28761;DHT22;15917;50.014;8.352;2023-04-01T16:49:44;12.00;99.90
28761;DHT22;15917;50.014;8.352;2023-04-01T16:52:13;11.90;99.90
28761;DHT22;15917;50.014;8.352;2023-04-01T16:54:47;11.90;99.90
28761;DHT22;15917;50.014;8.352;2023-04-01T16:57:23;11.90;99.90
28761;DHT22;15917;50.014;8.352;2023-04-01T16:59:58;11.90;99.90
28761;DHT22;15917;50.014;8.352;2023-04-01T17:02:37;11.90;99.90
28761;DHT22;15917;50.014;8.352;2023-04-01T17:05:05;11.90;99.90
28761;DHT22;15917;50.014;8.352;2023-04-01T17:08:06;11.90;99.90
28761;DHT22;15917;50.014;8.352;2023-04-01T17:13:34;11.80;99.90
28761;DHT22;15917;50.014;8.352;2023-04-01T17:19:16;11.70;99.90
28761;DHT22;15917;50.014;8.352;2023-04-01T17:21:54;11.70;99.90
28761;DHT22;15917;50.014;8.352;2023-04-01T17:27:13;11.70;99.90
28761;DHT22;15917;50.014;8.352;2023-04-01T17:35:48;11.50;99.90
28761;DHT22;15917;50.014;8.352;2023-04-01T17:38:46;11.40;99.90
28761;DHT22;15917;50.014;8.352;2023-04-01T17:41:31;11.30;99.90
28761;DHT22;15917;50.014;8.352;2023-04-01T17:44:19;11.30;99.90
28761;DHT22;15917;50.014;8.352;2023-04-01T17:53:07;11.30;99.90
28761;DHT22;15917;50.014;8.352;2023-04-01T18:01:11;11.20;99.90
28761;DHT22;15917;50.014;8.352;2023-04-01T18:22:48;11.40;99.90
28761;DHT22;15917;50.014;8.352;2023-04-01T18:25:40;11.30;99.90
28761;DHT22;15917;50.014;8.352;2023-04-01T18:30:58;11.20;99.90
28761;DHT22;15917;50.014;8.352;2023-04-01T18:38:54;11.10;99.90
28761;DHT22;15917;50.014;8.352;2023-04-01T18:44:05;11.00;99.90
28761;DHT22;15917;50.014;8.352;2023-04-01T18:46:49;11.00;99.90
28761;DHT22;15917;50.014;8.352;2023-04-01T18:51:51;11.00;99.90
28761;DHT22;15917;50.014;8.352;2023-04-01T18:54:42;10.90;99.90
28761;DHT22;15917;50.014;8.352;2023-04-01T18:57:15;10.90;99.90
28761;DHT22;15917;50.014;8.352;2023-04-01T18:59:46;10.90;99.90
28761;DHT22;15917;50.014;8.352;2023-04-01T19:02:32;10.80;99.90
28761;DHT22;15917;50.014;8.352;2023-04-01T19:05:19;10.80;99.90
28761;DHT22;15917;50.014;8.352;2023-04-01T19:07:48;10.80;99.90
28761;DHT22;15917;50.014;8.352;2023-04-01T19:15:44;10.70;99.90
28761;DHT22;15917;50.014;8.352;2023-04-01T19:21:13;10.70;99.90
28761;DHT22;15917;50.014;8.352;2023-04-01T19:26:49;10.70;99.90
28761;DHT22;15917;50.014;8.352;2023-04-01T19:37:27;10.60;99.90
28761;DHT22;15917;50.014;8.352;2023-04-01T19:40:21;10.70;99.90
28761;DHT22;15917;50.014;8.352;2023-04-01T19:48:34;10.70;99.90
28761;DHT22;15917;50.014;8.352;2023-04-01T19:54:08;10.60;99.90
28761;DHT22;15917;50.014;8.352;2023-04-01T19:59:38;10.50;99.90
28761;DHT22;15917;50.014;8.352;2023-04-01T20:04:53;10.50;99.90
28761;DHT22;15917;50.014;8.352;2023-04-01T20:15:36;10.40;99.90
28761;DHT22;15917;50.014;8.352;2023-04-01T20:18:12;10.40;99.90
28761;DHT22;15917;50.014;8.352;2023-04-01T20:20:40;10.30;99.90
28761;DHT22;15917;50.014;8.352;2023-04-01T20:23:35;10.30;99.90
28761;DHT22;15917;50.014;8.352;2023-04-01T20:26:08;10.30;99.90
28761;DHT22;15917;50.014;8.352;2023-04-01T20:28:42;10.30;99.90
28761;DHT22;15917;50.014;8.352;2023-04-01T20:31:28;10.30;99.90
28761;DHT22;15917;50.014;8.352;2023-04-01T20:39:31;10.30;99.90
28761;DHT22;15917;50.014;8.352;2023-04-01T20:50:50;10.30;99.90
28761;DHT22;15917;50.014;8.352;2023-04-01T20:53:20;10.30;99.90
28761;DHT22;15917;50.014;8.352;2023-04-01T20:56:06;10.30;99.90
28761;DHT22;15917;50.014;8.352;2023-04-01T21:09:09;10.30;99.90
28761;DHT22;15917;50.014;8.352;2023-04-01T21:17:34;10.30;99.90
28761;DHT22;15917;50.014;8.352;2023-04-01T21:20:36;10.30;99.90
28761;DHT22;15917;50.014;8.352;2023-04-01T21:23:29;10.30;99.90
28761;DHT22;15917;50.014;8.352;2023-04-01T21:26:12;10.20;99.90
28761;DHT22;15917;50.014;8.352;2023-04-01T21:28:49;10.40;99.90
28761;DHT22;15917;50.014;8.352;2023-04-01T21:31:45;10.30;99.90
28761;DHT22;15917;50.014;8.352;2023-04-01T21:39:52;10.30;99.90
28761;DHT22;15917;50.014;8.352;2023-04-01T21:45:49;10.40;99.90
28761;DHT22;15917;50.014;8.352;2023-04-01T21:48:44;10.40;99.90
28761;DHT22;15917;50.014;8.352;2023-04-01T21:51:24;10.40;99.90
28761;DHT22;15917;50.014;8.352;2023-04-01T22:00:17;10.40;99.90
28761;DHT22;15917;50.014;8.352;2023-04-01T22:03:14;10.40;99.90
28761;DHT22;15917;50.014;8.352;2023-04-01T22:06:08;10.40;99.90
28761;DHT22;15917;50.014;8.352;2023-04-01T22:08:47;10.30;99.90
28761;DHT22;15917;50.014;8.352;2023-04-01T22:14:04;10.30;99.90
28761;DHT22;15917;50.014;8.352;2023-04-01T22:21:51;10.30;99.90
28761;DHT22;15917;50.014;8.352;2023-04-01T22:24:33;10.30;99.90
28761;DHT22;15917;50.014;8.352;2023-04-01T22:27:11;10.30;99.90
28761;DHT22;15917;50.014;8.352;2023-04-01T22:30:04;10.30;99.90
28761;DHT22;15917;50.014;8.352;2023-04-01T22:38:17;10.30;99.90
28761;DHT22;15917;50.014;8.352;2023-04-01T22:41:08;10.30;99.90
28761;DHT22;15917;50.014;8.352;2023-04-01T22:43:42;10.30;99.90
28761;DHT22;15917;50.014;8.352;2023-04-01T22:49:09;10.30;99.90
28761;DHT22;15917;50.014;8.352;2023-04-01T22:51:53;10.30;99.90
28761;DHT22;15917;50.014;8.352;2023-04-01T23:04:58;10.30;99.90
28761;DHT22;15917;50.014;8.352;2023-04-01T23:10:38;10.30;99.90
28761;DHT22;15917;50.014;8.352;2023-04-01T23:13:16;10.40;99.90
28761;DHT22;15917;50.014;8.352;2023-04-01T23:15:44;10.40;99.90
28761;DHT22;15917;50.014;8.352;2023-04-01T23:21:39;10.40;99.90
28761;DHT22;15917;50.014;8.352;2023-04-01T23:24:15;10.30;99.90
28761;DHT22;15917;50.014;8.352;2023-04-01T23:27:02;10.30;99.90
28761;DHT22;15917;50.014;8.352;2023-04-01T23:29:28;10.30;99.90
28761;DHT22;15917;50.014;8.352;2023-04-01T23:32:02;10.30;99.90
28761;DHT22;15917;50.014;8.352;2023-04-01T23:34:30;10.30;99.90
28761;DHT22;15917;50.014;8.352;2023-04-01T23:37:00;10.30;99.90
28761;DHT22;15917;50.014;8.352;2023-04-01T23:39:35;10.30;99.90
28761;DHT22;15917;50.014;8.352;2023-04-01T23:42:14;10.30;99.90
28761;DHT22;15917;50.014;8.352;2023-04-01T23:44:41;10.30;99.90
28761;DHT22;15917;50.014;8.352;2023-04-01T23:47:14;10.30;99.90
28761;DHT22;15917;50.014;8.352;2023-04-01T23:49:45;10.30;99.90
28761;DHT22;15917;50.014;8.352;2023-04-01T23:52:26;10.30;99.90
28761;DHT22;15917;50.014;8.352;2023-04-01T23:54:55;10.30;99.90
28761;DHT22;15917;50.014;8.352;2023-04-01T23:57:30;10.20;99.90
